createdAt,value
2023-04-07T00:02:18.803Z,11.54
2023-04-07T00:07:21.692Z,11.53
2023-04-07T00:12:25.582Z,11.50
2023-04-07T00:17:27.875Z,11.55
2023-04-07T00:22:30.789Z,11.57
2023-04-07T00:27:33.155Z,11.53
2023-04-07T00:32:36.525Z,11.49
2023-04-07T00:37:39.133Z,11.37
2023-04-07T00:42:42.130Z,11.43
2023-04-07T00:47:45.755Z,11.46
2023-04-07T00:52:48.985Z,11.38
2023-04-07T00:57:54.120Z,11.35
2023-04-07T01:03:05.542Z,11.32
2023-04-07T01:08:21.012Z,11.31
2023-04-07T01:13:31.720Z,11.18
2023-04-07T01:18:47.951Z,11.20
2023-04-07T01:24:02.772Z,11.24
2023-04-07T01:29:31.580Z,11.21
2023-04-07T01:34:35.974Z,11.12
2023-04-07T01:39:41.427Z,11.11
2023-04-07T01:44:46.379Z,11.02
2023-04-07T01:49:50.132Z,10.86
2023-04-07T01:54:55.562Z,10.95
2023-04-07T01:59:58.603Z,10.85
2023-04-07T02:05:10.234Z,10.77
2023-04-07T02:10:17.403Z,10.61
2023-04-07T02:15:20.601Z,10.44
2023-04-07T02:20:25.150Z,10.43
2023-04-07T02:25:29.966Z,10.34
2023-04-07T02:30:34.203Z,10.45
2023-04-07T02:35:36.635Z,10.55
2023-04-07T02:40:39.747Z,10.43
2023-04-07T02:45:42.205Z,10.52
2023-04-07T02:50:44.624Z,10.49
2023-04-07T02:55:46.954Z,10.60
2023-04-07T03:00:50.919Z,10.70
2023-04-07T03:05:58.287Z,10.69
2023-04-07T03:11:00.997Z,10.87
2023-04-07T03:16:05.793Z,10.67
2023-04-07T03:21:17.710Z,10.86
2023-04-07T03:26:22.009Z,11.00
2023-04-07T03:31:25.675Z,10.99
2023-04-07T03:36:30.188Z,11.26
2023-04-07T03:41:36.974Z,11.44
2023-04-07T03:46:40.648Z,11.67
2023-04-07T03:51:44.377Z,11.62
2023-04-07T03:56:51.671Z,11.44
2023-04-07T04:01:59.052Z,11.62
2023-04-07T04:07:02.330Z,11.58
2023-04-07T04:12:21.813Z,11.65
2023-04-07T04:17:38.985Z,11.73
2023-04-07T04:22:43.758Z,11.97
2023-04-07T04:27:47.762Z,13.00
2023-04-07T04:32:55.822Z,13.97
2023-04-07T04:38:07.801Z,14.77
2023-04-07T04:43:12.379Z,15.55
2023-04-07T04:48:18.183Z,16.15
2023-04-07T04:53:23.421Z,16.76
2023-04-07T04:58:31.594Z,17.37
2023-04-07T05:03:35.687Z,18.13
2023-04-07T05:08:46.474Z,18.56
2023-04-07T05:13:51.554Z,18.94
2023-04-07T05:18:55.107Z,19.36
2023-04-07T05:24:01.070Z,19.60
2023-04-07T05:29:10.188Z,19.90
2023-04-07T05:34:14.265Z,20.17
2023-04-07T05:39:24.244Z,20.37
2023-04-07T05:44:30.900Z,20.68
2023-04-07T05:49:36.064Z,21.04
2023-04-07T05:54:42.462Z,21.25
2023-04-07T05:59:48.256Z,21.86
2023-04-07T06:04:52.478Z,22.47
2023-04-07T06:10:17.337Z,22.65
2023-04-07T06:15:21.292Z,22.78
2023-04-07T06:20:26.284Z,22.17
2023-04-07T06:25:28.720Z,22.17
2023-04-07T06:30:32.133Z,22.18
2023-04-07T06:35:36.325Z,22.89
2023-04-07T06:40:39.236Z,22.95
2023-04-07T06:45:47.062Z,22.89
2023-04-07T06:50:53.176Z,22.87
2023-04-07T06:56:11.651Z,23.01
2023-04-07T07:01:17.304Z,23.11
2023-04-07T07:06:21.720Z,23.43
2023-04-07T07:11:26.526Z,23.42
2023-04-07T07:16:29.771Z,22.82
2023-04-07T07:21:32.734Z,23.11
2023-04-07T07:26:35.041Z,22.85
2023-04-07T07:31:38.028Z,22.29
2023-04-07T07:36:41.285Z,22.10
2023-04-07T07:41:45.824Z,21.33
2023-04-07T07:46:51.348Z,21.44
2023-04-07T07:51:54.284Z,21.01
2023-04-07T07:56:59.091Z,20.98
2023-04-07T08:02:01.954Z,20.71
2023-04-07T08:07:05.028Z,20.34
2023-04-07T08:12:07.953Z,20.22
2023-04-07T08:17:13.352Z,20.08
2023-04-07T08:22:16.275Z,19.94
2023-04-07T08:27:19.174Z,20.17
2023-04-07T08:32:27.055Z,19.66
2023-04-07T08:37:30.589Z,20.08
2023-04-07T08:42:35.003Z,20.18
2023-04-07T08:47:41.771Z,19.90
2023-04-07T08:53:01.020Z,19.95
2023-04-07T08:58:06.155Z,19.69
2023-04-07T09:03:11.528Z,19.97
2023-04-07T09:08:16.910Z,19.94
2023-04-07T09:13:19.803Z,20.12
2023-04-07T09:18:23.498Z,19.92
2023-04-07T09:23:33.893Z,19.89
2023-04-07T09:28:42.382Z,20.05
2023-04-07T09:33:45.806Z,20.01
2023-04-07T09:38:49.395Z,20.07
2023-04-07T09:43:58.918Z,20.17
2023-04-07T09:49:08.268Z,20.18
2023-04-07T09:54:12.609Z,20.14
2023-04-07T09:59:16.824Z,20.36
2023-04-07T10:04:22.090Z,20.26
2023-04-07T10:09:29.020Z,19.82
2023-04-07T10:14:33.738Z,19.77
2023-04-07T10:19:36.740Z,19.74
2023-04-07T10:24:59.709Z,19.80
2023-04-07T10:30:28.777Z,19.67
2023-04-07T10:36:08.223Z,19.63
2023-04-07T10:41:34.025Z,19.99
2023-04-07T10:46:46.234Z,19.95
2023-04-07T10:52:14.212Z,20.02
2023-04-07T10:57:18.339Z,19.85
2023-04-07T11:02:24.445Z,20.15
2023-04-07T11:07:50.731Z,20.21
2023-04-07T11:13:04.100Z,20.24
2023-04-07T11:18:15.777Z,20.07
2023-04-07T11:23:20.482Z,20.28
2023-04-07T11:28:24.108Z,20.23
2023-04-07T11:33:31.461Z,20.25
2023-04-07T11:38:39.025Z,20.11
2023-04-07T11:43:42.775Z,19.92
2023-04-07T11:48:47.676Z,19.97
2023-04-07T11:53:57.385Z,19.81
2023-04-07T11:59:00.276Z,19.80
2023-04-07T12:04:05.312Z,19.74
2023-04-07T12:09:10.195Z,19.72
2023-04-07T12:14:16.316Z,19.58
2023-04-07T12:19:19.349Z,19.66
2023-04-07T12:24:23.212Z,19.71
2023-04-07T12:29:26.012Z,19.80
2023-04-07T12:34:29.172Z,19.69
2023-04-07T12:39:34.324Z,19.60
2023-04-07T12:44:41.471Z,19.67
2023-04-07T12:49:46.372Z,19.84
2023-04-07T12:54:51.100Z,19.71
2023-04-07T12:59:54.509Z,19.70
2023-04-07T13:04:57.410Z,19.74
2023-04-07T13:10:00.211Z,19.84
2023-04-07T13:15:02.796Z,19.78
2023-04-07T13:20:07.885Z,19.09
2023-04-07T13:25:10.943Z,19.61
2023-04-07T13:30:15.371Z,19.17
2023-04-07T13:35:19.532Z,19.55
2023-04-07T13:40:21.987Z,19.33
2023-04-07T13:45:25.693Z,19.41
2023-04-07T13:50:28.752Z,19.21
2023-04-07T13:55:31.078Z,19.38
2023-04-07T14:00:35.999Z,18.54
2023-04-07T14:05:38.899Z,19.30
2023-04-07T14:10:42.339Z,19.24
2023-04-07T14:15:46.027Z,19.09
2023-04-07T14:20:48.904Z,19.09
2023-04-07T14:25:51.187Z,18.92
2023-04-07T14:30:55.258Z,18.94
2023-04-07T14:35:58.140Z,18.87
2023-04-07T14:46:08.689Z,18.63
2023-04-07T14:51:13.052Z,18.63
2023-04-07T14:56:16.688Z,18.52
2023-04-07T15:01:19.112Z,18.22
2023-04-07T15:06:21.486Z,18.13
2023-04-07T15:11:24.199Z,18.19
2023-04-07T15:16:27.895Z,17.95
2023-04-07T15:21:31.186Z,17.91
2023-04-07T15:26:33.619Z,17.65
2023-04-07T15:31:36.155Z,17.69
2023-04-07T15:36:39.200Z,17.62
2023-04-07T15:41:41.827Z,17.29
2023-04-07T15:46:44.840Z,17.34
2023-04-07T15:51:47.257Z,17.10
2023-04-07T15:56:49.608Z,17.02
2023-04-07T16:01:53.668Z,16.98
2023-04-07T16:06:56.217Z,16.92
2023-04-07T16:11:58.496Z,16.80
2023-04-07T16:17:01.913Z,16.20
2023-04-07T16:22:05.066Z,16.28
2023-04-07T16:27:07.369Z,16.31
2023-04-07T16:32:09.900Z,16.12
2023-04-07T16:37:12.968Z,15.95
2023-04-07T16:42:15.619Z,15.99
2023-04-07T16:47:17.868Z,15.83
2023-04-07T16:52:21.154Z,15.69
2023-04-07T16:57:23.473Z,15.61
2023-04-07T17:02:27.766Z,15.41
2023-04-07T17:07:30.444Z,15.42
2023-04-07T17:12:32.748Z,15.32
2023-04-07T17:17:35.934Z,14.49
2023-04-07T17:22:38.263Z,15.09
2023-04-07T17:27:40.971Z,14.72
2023-04-07T17:32:43.666Z,14.78
2023-04-07T17:37:46.351Z,14.82
2023-04-07T17:42:48.854Z,14.45
2023-04-07T17:47:51.934Z,14.58
2023-04-07T17:52:54.413Z,14.43
2023-04-07T17:58:01.245Z,14.34
2023-04-07T18:03:04.316Z,14.11
2023-04-07T18:08:07.159Z,14.25
2023-04-07T18:13:15.300Z,14.06
2023-04-07T18:18:24.464Z,13.57
2023-04-07T18:23:27.474Z,13.48
2023-04-07T18:28:30.677Z,13.90
2023-04-07T18:33:34.399Z,13.46
2023-04-07T18:38:42.665Z,13.67
2023-04-07T18:43:47.722Z,13.75
2023-04-07T18:48:50.388Z,13.41
2023-04-07T18:53:52.736Z,13.68
2023-04-07T18:58:55.156Z,13.65
2023-04-07T19:03:57.798Z,13.67
2023-04-07T19:09:00.231Z,13.70
2023-04-07T19:14:02.657Z,13.73
2023-04-07T19:19:05.425Z,13.56
2023-04-07T19:24:07.972Z,13.61
2023-04-07T19:29:12.686Z,13.53
2023-04-07T19:34:14.928Z,13.53
2023-04-07T19:39:17.386Z,13.27
2023-04-07T19:44:19.899Z,13.34
2023-04-07T19:49:25.153Z,13.17
2023-04-07T19:54:28.271Z,13.28
2023-04-07T19:59:30.943Z,13.04
2023-04-07T20:04:33.628Z,13.00
2023-04-07T20:09:37.268Z,13.08
2023-04-07T20:14:39.675Z,13.02
2023-04-07T20:19:42.095Z,13.22
2023-04-07T20:24:45.606Z,13.11
2023-04-07T20:29:47.945Z,13.16
2023-04-07T20:34:52.428Z,13.02
2023-04-07T20:39:55.762Z,13.17
2023-04-07T20:45:03.980Z,13.01
2023-04-07T20:50:07.648Z,13.16
2023-04-07T20:55:12.011Z,12.58
2023-04-07T21:00:15.707Z,12.54
2023-04-07T21:05:20.780Z,12.92
2023-04-07T21:10:23.142Z,12.76
2023-04-07T21:15:26.200Z,12.73
2023-04-07T21:20:28.495Z,12.74
2023-04-07T21:25:31.437Z,12.78
2023-04-07T21:30:34.438Z,12.72
2023-04-07T21:35:38.233Z,12.52
2023-04-07T21:40:40.586Z,12.50
2023-04-07T21:45:44.182Z,12.41
2023-04-07T21:50:46.658Z,12.27
2023-04-07T21:55:49.665Z,12.12
2023-04-07T22:00:53.760Z,12.18
2023-04-07T22:06:00.951Z,11.84
2023-04-07T22:11:03.362Z,11.29
2023-04-07T22:16:07.120Z,11.36
2023-04-07T22:21:09.615Z,11.13
2023-04-07T22:26:12.069Z,11.31
2023-04-07T22:31:14.503Z,11.12
2023-04-07T22:36:16.997Z,10.94
2023-04-07T22:41:19.662Z,10.68
2023-04-07T22:46:21.917Z,10.49
2023-04-07T22:51:24.504Z,10.38
2023-04-07T22:56:27.397Z,10.18
2023-04-07T23:01:29.756Z,10.36
2023-04-07T23:06:32.311Z,9.97
2023-04-07T23:11:34.827Z,9.44
2023-04-07T23:16:37.358Z,9.99
2023-04-07T23:21:39.971Z,9.72
2023-04-07T23:26:42.286Z,9.64
2023-04-07T23:31:44.667Z,9.51
2023-04-07T23:36:47.077Z,9.64
2023-04-07T23:41:49.544Z,9.58
2023-04-07T23:46:51.857Z,9.49
2023-04-07T23:51:54.249Z,9.26
2023-04-07T23:56:57.295Z,8.85
